Arrow — CRXN — position and weather

sailwx.info

Track history (hours):
 
Tides and Currents Weather Stations Pressure Air Temp Water Temp Dewpoint Dewpoint Depression Visibility Wind Speed Wind Dir Waves Ship Positions

Arrow

Last reported at 2015-Apr-01 23:18 UTC. Time now 2015-Apr-02 00:14 UTC.
Position N 39°37' W 000°10'.

Length 126 m; draft 5.6 m.

Type: Cargo ship. MMSI: 255797000.

Date/timePositionNaut miles runAvg speedWind from/ knotsBaromVisibWave heightAir tempDewpointWater temp
2015-Apr-01 23:18N 39°37' W 000°10'7012.1
2015-Apr-01 17:31N 39°17' E 001°17'1712.5
2015-Apr-01 16:07N 39°12' E 001°38'712.4
2015-Apr-01 15:33N 39°10' E 001°47'1312.6
2015-Apr-01 14:33N 39°04' E 002°01'1312.6
2015-Apr-01 13:32N 38°59' E 002°16'1312.7
2015-Apr-01 12:33N 38°52' E 002°30'1312.6
2015-Apr-01 11:33N 38°46' E 002°44'1312.5
2015-Apr-01 10:33N 38°41' E 002°59'1312.2
2015-Apr-01 09:31N 38°35' E 003°13'  
Track history (hours):
 
Tides and Currents Weather Stations Pressure Air Temp Water Temp Dewpoint Dewpoint Depression Visibility Wind Speed Wind Dir Waves Ship Positions

Arrow

Last reported at 2015-Apr-01 23:18 UTC. Time now 2015-Apr-02 00:14 UTC.
Position N 39°37' W 000°10'.

Length 126 m; draft 5.6 m.

Type: Cargo ship. MMSI: 255797000.

Date/timePositionNaut miles runAvg speedWind from/ knotsBaromVisibWave heightAir tempDewpointWater temp
2015-Apr-01 23:18N 39°37' W 000°10'7012.1
2015-Apr-01 17:31N 39°17' E 001°17'1712.5
2015-Apr-01 16:07N 39°12' E 001°38'712.4
2015-Apr-01 15:33N 39°10' E 001°47'1312.6
2015-Apr-01 14:33N 39°04' E 002°01'1312.6
2015-Apr-01 13:32N 38°59' E 002°16'1312.7
2015-Apr-01 12:33N 38°52' E 002°30'1312.6
2015-Apr-01 11:33N 38°46' E 002°44'1312.5
2015-Apr-01 10:33N 38°41' E 002°59'1312.2
2015-Apr-01 09:31N 38°35' E 003°13'  

Dump ship's entire track history